PWSweather.com
Personal Weather Stations
Station Observations
DEKREUPEL
Wsv De Kreupel, AndijkNL 1619 JV

Wsv De KreupelAndijkNL 1619 JV

Lat: 52.7417364, Lon: 5.1809356

Elevation: 33

Station Type: Rainwise MKiii LR

High Low Average
Temperature 71.5°F21.9°C 65.0°F18.3°C 68.5°F20.3°C
Dew Point 100.9°F38.3°C 93.4°F34.1°C 97.5°F36.4°C
Winds 16.6 mph 26.7 kmh Calm Calm 7.0 mph WSW11.3 kmh WSW
Wind Gusts 22.5 mph36.2 kmh -- 8.0 mph12.9 kmh
Humidity - - -
Pressure 30.25 in1024.4 mb 30.13 in1020.3 mb -
Precipitation 0.01 in0.3 mm - -
Hour Temp Dew Point Humidity Winds Wind Gusts Pressure Precip Precip Rate Daily Precip Total
12:04 AM 69.9°F21.1°C 99.0°F37.2°C - Calm Calm -- 30.14 in1020.7 mb 0.00 in0.0 mm 0.00 in0.0 mm 0.00 in0.0 mm
12:09 AM 69.9°F21.1°C 99.0°F37.2°C - Calm Calm -- 30.14 in1020.7 mb 0.00 in0.0 mm 0.00 in0.0 mm 0.00 in0.0 mm
12:14 AM 69.9°F21.1°C 99.0°F37.2°C - Calm Calm -- 30.14 in1020.7 mb 0.00 in0.0 mm 0.00 in0.0 mm 0.00 in0.0 mm
12:19 AM 69.9°F21.1°C 99.1°F37.3°C - Calm Calm -- 30.14 in1020.7 mb 0.00 in0.0 mm 0.00 in0.0 mm 0.00 in0.0 mm
12:24 AM 70.0°F21.1°C 99.1°F37.3°C - Calm Calm -- 30.14 in1020.7 mb 0.00 in0.0 mm 0.00 in0.0 mm 0.00 in0.0 mm
12:29 AM 69.9°F21.1°C 99.1°F37.3°C - Calm Calm -- 30.13 in1020.3 mb 0.00 in0.0 mm 0.00 in0.0 mm 0.00 in0.0 mm
12:34 AM 69.9°F21.1°C 99.0°F37.2°C - Calm Calm -- 30.13 in1020.3 mb 0.00 in0.0 mm 0.00 in0.0 mm 0.00 in0.0 mm
12:39 AM 69.9°F21.1°C 99.1°F37.3°C - Calm Calm -- 30.13 in1020.3 mb 0.00 in0.0 mm 0.00 in0.0 mm 0.00 in0.0 mm
12:44 AM 70.0°F21.1°C 99.1°F37.3°C - Calm Calm -- 30.13 in1020.3 mb 0.00 in0.0 mm 0.00 in0.0 mm 0.00 in0.0 mm
12:49 AM 70.0°F21.1°C 99.1°F37.3°C - Calm Calm -- 30.13 in1020.3 mb 0.00 in0.0 mm 0.00 in0.0 mm 0.00 in0.0 mm
12:54 AM 70.0°F21.1°C 99.1°F37.3°C - Calm Calm -- 30.13 in1020.3 mb 0.00 in0.0 mm 0.00 in0.0 mm 0.00 in0.0 mm
12:59 AM 70.0°F21.1°C 99.2°F37.3°C - 5.2 mph WSW8.4 kmh WSW 7.1 mph11.4 kmh 30.13 in1020.3 mb 0.00 in0.0 mm 0.00 in0.0 mm 0.00 in0.0 mm
01:04 AM 70.0°F21.1°C 99.2°F37.3°C - 7.0 mph WSW11.3 kmh WSW 8.5 mph13.7 kmh 30.13 in1020.3 mb 0.00 in0.0 mm 0.00 in0.0 mm 0.00 in0.0 mm
01:09 AM 70.0°F21.1°C 99.2°F37.3°C - 7.1 mph WSW11.4 kmh WSW 8.3 mph13.4 kmh 30.13 in1020.3 mb 0.00 in0.0 mm 0.00 in0.0 mm 0.00 in0.0 mm
01:14 AM 70.0°F21.1°C 99.2°F37.3°C - 7.1 mph WSW11.4 kmh WSW 8.7 mph14.0 kmh 30.13 in1020.3 mb 0.00 in0.0 mm 0.00 in0.0 mm 0.00 in0.0 mm
01:19 AM 70.0°F21.1°C 99.2°F37.3°C - 7.2 mph WSW11.6 kmh WSW 8.7 mph14.0 kmh 30.13 in1020.3 mb 0.00 in0.0 mm 0.00 in0.0 mm 0.00 in0.0 mm
01:24 AM 70.0°F21.1°C 99.1°F37.3°C - 7.1 mph WSW11.4 kmh WSW 9.4 mph15.1 kmh 30.13 in1020.3 mb 0.00 in0.0 mm 0.00 in0.0 mm 0.00 in0.0 mm
01:29 AM 70.0°F21.1°C 99.2°F37.3°C - 7.3 mph WSW11.7 kmh WSW 9.5 mph15.3 kmh 30.13 in1020.3 mb 0.00 in0.0 mm 0.00 in0.0 mm 0.00 in0.0 mm
01:34 AM 70.0°F21.1°C 99.1°F37.3°C - 6.4 mph WSW10.3 kmh WSW 7.8 mph12.6 kmh 30.13 in1020.3 mb 0.00 in0.0 mm 0.00 in0.0 mm 0.00 in0.0 mm
01:39 AM 70.0°F21.1°C 99.1°F37.3°C - 6.4 mph WSW10.3 kmh WSW 7.5 mph12.1 kmh 30.13 in1020.3 mb 0.00 in0.0 mm 0.00 in0.0 mm 0.00 in0.0 mm
01:44 AM 70.0°F21.1°C 99.1°F37.3°C - 7.2 mph WSW11.6 kmh WSW 9.2 mph14.8 kmh 30.13 in1020.3 mb 0.00 in0.0 mm 0.00 in0.0 mm 0.00 in0.0 mm
01:49 AM 70.0°F21.1°C 99.1°F37.3°C - 7.4 mph WSW11.9 kmh WSW 8.9 mph14.3 kmh 30.13 in1020.3 mb 0.00 in0.0 mm 0.00 in0.0 mm 0.00 in0.0 mm
01:54 AM 70.0°F21.1°C 99.2°F37.3°C - 5.7 mph WSW9.2 kmh WSW 9.7 mph15.6 kmh 30.14 in1020.7 mb 0.00 in0.0 mm 0.00 in0.0 mm 0.00 in0.0 mm
01:59 AM 70.0°F21.1°C 99.1°F37.3°C - 0.2 mph WSW0.3 kmh WSW 1.8 mph2.9 kmh 30.14 in1020.7 mb 0.00 in0.0 mm 0.00 in0.0 mm 0.00 in0.0 mm
02:04 AM 70.0°F21.1°C 99.1°F37.3°C - 6.8 mph WSW10.9 kmh WSW 9.0 mph14.5 kmh 30.14 in1020.7 mb 0.00 in0.0 mm 0.00 in0.0 mm 0.00 in0.0 mm
02:09 AM 70.0°F21.1°C 99.2°F37.3°C - 7.0 mph WSW11.3 kmh WSW 8.3 mph13.4 kmh 30.13 in1020.3 mb 0.00 in0.0 mm 0.00 in0.0 mm 0.00 in0.0 mm
02:14 AM 70.0°F21.1°C 99.2°F37.3°C - 7.2 mph WSW11.6 kmh WSW 8.8 mph14.2 kmh 30.14 in1020.7 mb 0.00 in0.0 mm 0.00 in0.0 mm 0.00 in0.0 mm
02:19 AM 70.0°F21.1°C 99.1°F37.3°C - 7.7 mph WSW12.4 kmh WSW 9.6 mph15.4 kmh 30.14 in1020.7 mb 0.00 in0.0 mm 0.00 in0.0 mm 0.00 in0.0 mm
02:24 AM 70.0°F21.1°C 99.1°F37.3°C - 7.2 mph WSW11.6 kmh WSW 8.9 mph14.3 kmh 30.14 in1020.7 mb 0.00 in0.0 mm 0.00 in0.0 mm 0.00 in0.0 mm
02:29 AM 70.0°F21.1°C 99.2°F37.3°C - 7.5 mph WSW12.1 kmh WSW 9.1 mph14.6 kmh 30.14 in1020.7 mb 0.00 in0.0 mm 0.00 in0.0 mm 0.00 in0.0 mm
02:34 AM 70.0°F21.1°C 99.2°F37.3°C - 7.3 mph WSW11.7 kmh WSW 9.0 mph14.5 kmh 30.14 in1020.7 mb 0.00 in0.0 mm 0.00 in0.0 mm 0.00 in0.0 mm
02:39 AM 70.0°F21.1°C 99.2°F37.3°C - 6.8 mph WSW10.9 kmh WSW 8.1 mph13.0 kmh 30.14 in1020.7 mb 0.00 in0.0 mm 0.00 in0.0 mm 0.00 in0.0 mm
02:44 AM 70.0°F21.1°C 99.1°F37.3°C - 6.9 mph WSW11.1 kmh WSW 8.4 mph13.5 kmh 30.14 in1020.7 mb 0.00 in0.0 mm 0.00 in0.0 mm 0.00 in0.0 mm
02:49 AM 70.0°F21.1°C 99.2°F37.3°C - 7.2 mph W11.6 kmh W 8.5 mph13.7 kmh 30.14 in1020.7 mb 0.00 in0.0 mm 0.00 in0.0 mm 0.00 in0.0 mm
02:54 AM 70.0°F21.1°C 99.1°F37.3°C - 6.9 mph W11.1 kmh W 8.3 mph13.4 kmh 30.14 in1020.7 mb 0.00 in0.0 mm 0.00 in0.0 mm 0.00 in0.0 mm
02:59 AM 70.0°F21.1°C 99.1°F37.3°C - 6.5 mph W10.5 kmh W 7.8 mph12.6 kmh 30.14 in1020.7 mb 0.00 in0.0 mm 0.00 in0.0 mm 0.00 in0.0 mm
03:04 AM 70.0°F21.1°C 99.2°F37.3°C - 7.2 mph W11.6 kmh W 8.5 mph13.7 kmh 30.14 in1020.7 mb 0.00 in0.0 mm 0.00 in0.0 mm 0.00 in0.0 mm
03:09 AM 70.0°F21.1°C 99.2°F37.3°C - 7.2 mph W11.6 kmh W 8.9 mph14.3 kmh 30.14 in1020.7 mb 0.00 in0.0 mm 0.00 in0.0 mm 0.00 in0.0 mm
03:14 AM 70.0°F21.1°C 99.1°F37.3°C - 7.8 mph W12.6 kmh W 9.0 mph14.5 kmh 30.14 in1020.7 mb 0.00 in0.0 mm 0.00 in0.0 mm 0.00 in0.0 mm
03:19 AM 70.0°F21.1°C 99.2°F37.3°C - 7.1 mph W11.4 kmh W 8.6 mph13.8 kmh 30.14 in1020.7 mb 0.00 in0.0 mm 0.00 in0.0 mm 0.00 in0.0 mm
03:24 AM 69.9°F21.1°C 99.1°F37.3°C - 7.0 mph W11.3 kmh W 8.3 mph13.4 kmh 30.14 in1020.7 mb 0.00 in0.0 mm 0.00 in0.0 mm 0.00 in0.0 mm
03:29 AM 69.7°F20.9°C 98.7°F37.1°C - 7.3 mph W11.7 kmh W 9.4 mph15.1 kmh 30.14 in1020.7 mb 0.00 in0.0 mm 0.00 in0.0 mm 0.00 in0.0 mm
03:34 AM 69.7°F20.9°C 98.9°F37.2°C - 7.5 mph W12.1 kmh W 8.8 mph14.2 kmh 30.14 in1020.7 mb 0.00 in0.0 mm 0.00 in0.0 mm 0.00 in0.0 mm
03:39 AM 69.7°F20.9°C 98.9°F37.2°C - 7.3 mph WNW11.7 kmh WNW 9.2 mph14.8 kmh 30.14 in1020.7 mb 0.00 in0.0 mm 0.00 in0.0 mm 0.00 in0.0 mm
03:44 AM 69.7°F20.9°C 98.7°F37.1°C - 8.8 mph W14.2 kmh W 10.5 mph16.9 kmh 30.14 in1020.7 mb 0.00 in0.0 mm 0.00 in0.0 mm 0.00 in0.0 mm
03:49 AM 69.7°F20.9°C 98.7°F37.1°C - 9.4 mph WNW15.1 kmh WNW 11.3 mph18.2 kmh 30.14 in1020.7 mb 0.00 in0.0 mm 0.00 in0.0 mm 0.00 in0.0 mm
03:54 AM 69.7°F20.9°C 98.7°F37.1°C - 9.6 mph W15.4 kmh W 11.5 mph18.5 kmh 30.13 in1020.3 mb 0.00 in0.0 mm 0.00 in0.0 mm 0.00 in0.0 mm
03:59 AM 69.7°F20.9°C 98.9°F37.2°C - 8.2 mph WNW13.2 kmh WNW 9.5 mph15.3 kmh 30.14 in1020.7 mb 0.00 in0.0 mm 0.00 in0.0 mm 0.00 in0.0 mm
04:04 AM 69.6°F20.9°C 98.6°F37.0°C - 7.1 mph W11.4 kmh W 8.4 mph13.5 kmh 30.13 in1020.3 mb 0.00 in0.0 mm 0.00 in0.0 mm 0.00 in0.0 mm
04:09 AM 69.5°F20.8°C 98.7°F37.1°C - 7.5 mph WNW12.1 kmh WNW 8.4 mph13.5 kmh 30.13 in1020.3 mb 0.00 in0.0 mm 0.00 in0.0 mm 0.00 in0.0 mm
04:14 AM 69.5°F20.8°C 98.7°F37.1°C - 8.7 mph WNW14.0 kmh WNW 9.8 mph15.8 kmh 30.13 in1020.3 mb 0.00 in0.0 mm 0.00 in0.0 mm 0.00 in0.0 mm
04:19 AM 69.4°F20.8°C 98.5°F36.9°C - 8.5 mph WNW13.7 kmh WNW 9.7 mph15.6 kmh 30.13 in1020.3 mb 0.00 in0.0 mm 0.00 in0.0 mm 0.00 in0.0 mm
04:24 AM 69.5°F20.8°C 98.7°F37.1°C - 9.3 mph WNW15.0 kmh WNW 10.2 mph16.4 kmh 30.13 in1020.3 mb 0.00 in0.0 mm 0.00 in0.0 mm 0.00 in0.0 mm
04:29 AM 69.4°F20.8°C 98.5°F36.9°C - 10.1 mph WNW16.3 kmh WNW 11.4 mph18.3 kmh 30.13 in1020.3 mb 0.00 in0.0 mm 0.00 in0.0 mm 0.00 in0.0 mm
04:34 AM 69.2°F20.7°C 98.3°F36.8°C - 9.3 mph WNW15.0 kmh WNW 11.0 mph17.7 kmh 30.13 in1020.3 mb 0.00 in0.0 mm 0.00 in0.0 mm 0.00 in0.0 mm
04:39 AM 69.2°F20.7°C 98.2°F36.8°C - 9.5 mph WNW15.3 kmh WNW 11.5 mph18.5 kmh 30.13 in1020.3 mb 0.00 in0.0 mm 0.00 in0.0 mm 0.00 in0.0 mm
04:44 AM 69.2°F20.7°C 98.2°F36.8°C - 9.7 mph WNW15.6 kmh WNW 11.3 mph18.2 kmh 30.14 in1020.7 mb 0.00 in0.0 mm 0.00 in0.0 mm 0.00 in0.0 mm
04:49 AM 69.1°F20.6°C 98.1°F36.7°C - 9.4 mph WNW15.1 kmh WNW 10.3 mph16.6 kmh 30.14 in1020.7 mb 0.00 in0.0 mm 0.00 in0.0 mm 0.00 in0.0 mm
04:54 AM 69.0°F20.6°C 98.1°F36.7°C - 11.5 mph WNW18.5 kmh WNW 13.0 mph20.9 kmh 30.13 in1020.3 mb 0.00 in0.0 mm 0.00 in0.0 mm 0.00 in0.0 mm
04:59 AM 69.0°F20.6°C 98.1°F36.7°C - 10.6 mph WNW17.1 kmh WNW 11.8 mph19.0 kmh 30.14 in1020.7 mb 0.00 in0.0 mm 0.00 in0.0 mm 0.00 in0.0 mm
05:04 AM 69.2°F20.7°C 98.3°F36.8°C - 11.3 mph WNW18.2 kmh WNW 14.2 mph22.9 kmh 30.13 in1020.3 mb 0.00 in0.0 mm 0.00 in0.0 mm 0.00 in0.0 mm
05:09 AM 69.0°F20.6°C 98.1°F36.7°C - 13.4 mph NW21.6 kmh NW 15.3 mph24.6 kmh 30.14 in1020.7 mb 0.00 in0.0 mm 0.00 in0.0 mm 0.00 in0.0 mm
05:14 AM 68.8°F20.4°C 97.7°F36.5°C - 14.9 mph NW24.0 kmh NW 17.0 mph27.4 kmh 30.14 in1020.7 mb 0.00 in0.0 mm 0.00 in0.0 mm 0.00 in0.0 mm
05:19 AM 68.7°F20.4°C 97.6°F36.4°C - 14.2 mph WNW22.9 kmh WNW 15.9 mph25.6 kmh 30.14 in1020.7 mb 0.00 in0.0 mm 0.00 in0.0 mm 0.00 in0.0 mm
05:24 AM 68.5°F20.3°C 97.5°F36.4°C - 13.8 mph NW22.2 kmh NW 15.3 mph24.6 kmh 30.14 in1020.7 mb 0.00 in0.0 mm 0.00 in0.0 mm 0.00 in0.0 mm
05:29 AM 68.4°F20.2°C 97.4°F36.3°C - 16.3 mph NW26.2 kmh NW 18.0 mph29.0 kmh 30.14 in1020.7 mb 0.00 in0.0 mm 0.00 in0.0 mm 0.00 in0.0 mm
05:34 AM 68.1°F20.1°C 96.9°F36.1°C - 13.2 mph WNW21.2 kmh WNW 15.5 mph24.9 kmh 30.14 in1020.7 mb 0.00 in0.0 mm 0.00 in0.0 mm 0.00 in0.0 mm
05:39 AM 67.9°F19.9°C 96.8°F36.0°C - 12.7 mph WNW20.4 kmh WNW 14.7 mph23.7 kmh 30.14 in1020.7 mb 0.00 in0.0 mm 0.00 in0.0 mm 0.00 in0.0 mm
05:44 AM 67.7°F19.8°C 96.6°F35.9°C - 13.8 mph NW22.2 kmh NW 15.3 mph24.6 kmh 30.14 in1020.7 mb 0.00 in0.0 mm 0.00 in0.0 mm 0.00 in0.0 mm
05:49 AM 67.7°F19.8°C 96.5°F35.8°C - 13.3 mph WNW21.4 kmh WNW 15.6 mph25.1 kmh 30.15 in1021.0 mb 0.00 in0.0 mm 0.00 in0.0 mm 0.00 in0.0 mm
05:54 AM 67.7°F19.8°C 96.6°F35.9°C - 12.3 mph WNW19.8 kmh WNW 14.0 mph22.5 kmh 30.15 in1021.0 mb 0.00 in0.0 mm 0.00 in0.0 mm 0.00 in0.0 mm
05:59 AM 67.5°F19.7°C 96.4°F35.8°C - 12.5 mph WNW20.1 kmh WNW 14.3 mph23.0 kmh 30.15 in1021.0 mb 0.00 in0.0 mm 0.00 in0.0 mm 0.00 in0.0 mm
06:04 AM 67.4°F19.7°C 96.2°F35.7°C - 10.8 mph WNW17.4 kmh WNW 12.4 mph20.0 kmh 30.15 in1021.0 mb 0.00 in0.0 mm 0.00 in0.0 mm 0.00 in0.0 mm
06:09 AM 67.4°F19.7°C 96.3°F35.7°C - 11.4 mph WNW18.3 kmh WNW 13.0 mph20.9 kmh 30.15 in1021.0 mb 0.00 in0.0 mm 0.00 in0.0 mm 0.00 in0.0 mm
06:14 AM 67.2°F19.6°C 96.1°F35.6°C - 11.1 mph WNW17.9 kmh WNW 13.0 mph20.9 kmh 30.15 in1021.0 mb 0.00 in0.0 mm 0.00 in0.0 mm 0.00 in0.0 mm
06:19 AM 67.4°F19.7°C 96.3°F35.7°C - 9.0 mph WNW14.5 kmh WNW 10.1 mph16.3 kmh 30.15 in1021.0 mb 0.00 in0.0 mm 0.00 in0.0 mm 0.00 in0.0 mm
06:24 AM 67.4°F19.7°C 96.3°F35.7°C - 9.2 mph WNW14.8 kmh WNW 10.9 mph17.5 kmh 30.15 in1021.0 mb 0.00 in0.0 mm 0.00 in0.0 mm 0.00 in0.0 mm
06:29 AM 67.5°F19.7°C 96.4°F35.8°C - 8.9 mph WNW14.3 kmh WNW 12.2 mph19.6 kmh 30.16 in1021.3 mb 0.00 in0.0 mm 0.00 in0.0 mm 0.00 in0.0 mm
06:34 AM 67.5°F19.7°C 96.4°F35.8°C - 7.5 mph WNW12.1 kmh WNW 8.7 mph14.0 kmh 30.16 in1021.3 mb 0.00 in0.0 mm 0.00 in0.0 mm 0.00 in0.0 mm
06:39 AM 67.5°F19.7°C 96.4°F35.8°C - 7.1 mph WNW11.4 kmh WNW 8.6 mph13.8 kmh 30.16 in1021.3 mb 0.00 in0.0 mm 0.00 in0.0 mm 0.00 in0.0 mm
06:44 AM 67.5°F19.7°C 96.4°F35.8°C - 7.9 mph WNW12.7 kmh WNW 9.5 mph15.3 kmh 30.15 in1021.0 mb 0.00 in0.0 mm 0.00 in0.0 mm 0.00 in0.0 mm
06:49 AM 67.5°F19.7°C 96.4°F35.8°C - 8.1 mph WNW13.0 kmh WNW 9.9 mph15.9 kmh 30.16 in1021.3 mb 0.00 in0.0 mm 0.00 in0.0 mm 0.00 in0.0 mm
06:54 AM 67.5°F19.7°C 96.3°F35.7°C - 8.9 mph WNW14.3 kmh WNW 15.0 mph24.1 kmh 30.16 in1021.3 mb 0.00 in0.0 mm 0.00 in0.0 mm 0.00 in0.0 mm
06:59 AM 67.5°F19.7°C 96.4°F35.8°C - 0.3 mph NW0.5 kmh NW 1.8 mph2.9 kmh 30.16 in1021.3 mb 0.00 in0.0 mm 0.00 in0.0 mm 0.00 in0.0 mm
07:04 AM 67.6°F19.8°C 96.5°F35.8°C - Calm Calm -- 30.16 in1021.3 mb 0.00 in0.0 mm 0.00 in0.0 mm 0.00 in0.0 mm
07:09 AM 67.3°F19.6°C 96.2°F35.7°C - Calm Calm -- 30.16 in1021.3 mb 0.00 in0.0 mm 0.00 in0.0 mm 0.00 in0.0 mm
07:14 AM 67.2°F19.6°C 96.1°F35.6°C - Calm Calm -- 30.16 in1021.3 mb 0.00 in0.0 mm 0.00 in0.0 mm 0.00 in0.0 mm
07:19 AM 67.2°F19.6°C 96.1°F35.6°C - Calm Calm -- 30.17 in1021.7 mb 0.00 in0.0 mm 0.00 in0.0 mm 0.00 in0.0 mm
07:24 AM 67.1°F19.5°C 95.9°F35.5°C - Calm Calm -- 30.17 in1021.7 mb 0.00 in0.0 mm 0.00 in0.0 mm 0.00 in0.0 mm
07:29 AM 67.0°F19.4°C 95.8°F35.4°C - 0.2 mph NW0.3 kmh NW 2.3 mph3.7 kmh 30.17 in1021.7 mb 0.00 in0.0 mm 0.00 in0.0 mm 0.00 in0.0 mm
07:34 AM 67.0°F19.4°C 95.7°F35.4°C - Calm Calm -- 30.17 in1021.7 mb 0.00 in0.0 mm 0.00 in0.0 mm 0.00 in0.0 mm
07:39 AM 67.0°F19.4°C 95.7°F35.4°C - Calm Calm -- 30.17 in1021.7 mb 0.00 in0.0 mm 0.00 in0.0 mm 0.00 in0.0 mm
07:44 AM 67.1°F19.5°C 95.9°F35.5°C - Calm Calm -- 30.18 in1022.0 mb 0.00 in0.0 mm 0.00 in0.0 mm 0.00 in0.0 mm
07:49 AM 67.2°F19.6°C 95.9°F35.5°C - Calm Calm -- 30.17 in1021.7 mb 0.00 in0.0 mm 0.00 in0.0 mm 0.00 in0.0 mm
07:54 AM 67.2°F19.6°C 96.1°F35.6°C - Calm Calm -- 30.18 in1022.0 mb 0.00 in0.0 mm 0.00 in0.0 mm 0.00 in0.0 mm
07:59 AM 67.4°F19.7°C 96.3°F35.7°C - Calm Calm -- 30.18 in1022.0 mb 0.00 in0.0 mm 0.00 in0.0 mm 0.00 in0.0 mm
08:04 AM 67.4°F19.7°C 96.3°F35.7°C - Calm Calm -- 30.18 in1022.0 mb 0.00 in0.0 mm 0.00 in0.0 mm 0.00 in0.0 mm
08:09 AM 67.2°F19.6°C 96.1°F35.6°C - Calm Calm -- 30.18 in1022.0 mb 0.00 in0.0 mm 0.00 in0.0 mm 0.00 in0.0 mm
08:14 AM 67.2°F19.6°C 96.1°F35.6°C - Calm Calm -- 30.18 in1022.0 mb 0.00 in0.0 mm 0.00 in0.0 mm 0.00 in0.0 mm
08:19 AM 67.2°F19.6°C 96.1°F35.6°C - Calm Calm -- 30.19 in1022.4 mb 0.00 in0.0 mm 0.00 in0.0 mm 0.00 in0.0 mm
08:24 AM 67.4°F19.7°C 96.2°F35.7°C - 0.1 mph WNW0.2 kmh WNW 1.1 mph1.8 kmh 30.19 in1022.4 mb 0.00 in0.0 mm 0.00 in0.0 mm 0.00 in0.0 mm
08:29 AM 67.2°F19.6°C 96.1°F35.6°C - Calm Calm -- 30.19 in1022.4 mb 0.00 in0.0 mm 0.00 in0.0 mm 0.00 in0.0 mm
08:34 AM 67.4°F19.7°C 96.3°F35.7°C - Calm Calm -- 30.19 in1022.4 mb 0.00 in0.0 mm 0.00 in0.0 mm 0.00 in0.0 mm
08:39 AM 67.5°F19.7°C 96.3°F35.7°C - 4.8 mph WNW7.7 kmh WNW 9.1 mph14.6 kmh 30.19 in1022.4 mb 0.00 in0.0 mm 0.00 in0.0 mm 0.00 in0.0 mm
08:44 AM 67.7°F19.8°C 96.5°F35.8°C - 8.1 mph WNW13.0 kmh WNW 11.8 mph19.0 kmh 30.19 in1022.4 mb 0.00 in0.0 mm 0.00 in0.0 mm 0.00 in0.0 mm
08:49 AM 67.7°F19.8°C 96.6°F35.9°C - 5.7 mph WNW9.2 kmh WNW 7.8 mph12.6 kmh 30.19 in1022.4 mb 0.00 in0.0 mm 0.00 in0.0 mm 0.00 in0.0 mm
08:54 AM 67.9°F19.9°C 96.8°F36.0°C - 5.0 mph WNW8.0 kmh WNW 7.6 mph12.2 kmh 30.19 in1022.4 mb 0.00 in0.0 mm 0.00 in0.0 mm 0.00 in0.0 mm
08:59 AM 68.0°F20.0°C 97.0°F36.1°C - 6.0 mph WNW9.7 kmh WNW 7.7 mph12.4 kmh 30.19 in1022.4 mb 0.00 in0.0 mm 0.00 in0.0 mm 0.00 in0.0 mm
09:04 AM 68.2°F20.1°C 97.1°F36.2°C - 5.4 mph WNW8.7 kmh WNW 6.8 mph10.9 kmh 30.19 in1022.4 mb 0.00 in0.0 mm 0.00 in0.0 mm 0.00 in0.0 mm
09:09 AM 68.2°F20.1°C 97.2°F36.2°C - 6.3 mph WNW10.1 kmh WNW 7.2 mph11.6 kmh 30.19 in1022.4 mb 0.00 in0.0 mm 0.00 in0.0 mm 0.00 in0.0 mm
09:14 AM 68.3°F20.2°C 97.2°F36.2°C - 5.5 mph WNW8.9 kmh WNW 6.3 mph10.1 kmh 30.20 in1022.7 mb 0.00 in0.0 mm 0.00 in0.0 mm 0.00 in0.0 mm
09:19 AM 68.4°F20.2°C 97.3°F36.3°C - 6.6 mph WNW10.6 kmh WNW 7.5 mph12.1 kmh 30.20 in1022.7 mb 0.00 in0.0 mm 0.00 in0.0 mm 0.00 in0.0 mm
09:24 AM 68.5°F20.3°C 97.5°F36.4°C - 6.2 mph NW10.0 kmh NW 7.3 mph11.7 kmh 30.20 in1022.7 mb 0.00 in0.0 mm 0.00 in0.0 mm 0.00 in0.0 mm
09:29 AM 68.5°F20.3°C 97.5°F36.4°C - 8.2 mph NW13.2 kmh NW 9.9 mph15.9 kmh 30.20 in1022.7 mb 0.00 in0.0 mm 0.00 in0.0 mm 0.00 in0.0 mm
09:34 AM 68.5°F20.3°C 97.5°F36.4°C - 8.7 mph NW14.0 kmh NW 10.2 mph16.4 kmh 30.20 in1022.7 mb 0.00 in0.0 mm 0.00 in0.0 mm 0.00 in0.0 mm
09:39 AM 68.7°F20.4°C 97.6°F36.4°C - 10.4 mph NW16.7 kmh NW 13.4 mph21.6 kmh 30.21 in1023.0 mb 0.00 in0.0 mm 0.00 in0.0 mm 0.00 in0.0 mm
09:44 AM 68.5°F20.3°C 97.5°F36.4°C - 9.4 mph NW15.1 kmh NW 11.0 mph17.7 kmh 30.20 in1022.7 mb 0.00 in0.0 mm 0.00 in0.0 mm 0.01 in0.3 mm
09:49 AM 68.5°F20.3°C 97.5°F36.4°C - 8.9 mph NW14.3 kmh NW 10.5 mph16.9 kmh 30.21 in1023.0 mb 0.00 in0.0 mm 0.00 in0.0 mm 0.01 in0.3 mm
09:54 AM 68.6°F20.3°C 97.5°F36.4°C - 8.0 mph NW12.9 kmh NW 9.5 mph15.3 kmh 30.21 in1023.0 mb 0.00 in0.0 mm 0.00 in0.0 mm 0.01 in0.3 mm
09:59 AM 68.7°F20.4°C 97.7°F36.5°C - 7.9 mph NW12.7 kmh NW 10.5 mph16.9 kmh 30.21 in1023.0 mb 0.00 in0.0 mm 0.00 in0.0 mm 0.01 in0.3 mm
10:04 AM 68.9°F20.5°C 98.0°F36.7°C - 8.5 mph NNW13.7 kmh NNW 10.4 mph16.7 kmh 30.21 in1023.0 mb 0.00 in0.0 mm 0.00 in0.0 mm 0.01 in0.3 mm
10:09 AM 69.0°F20.6°C 98.0°F36.7°C - 9.7 mph N15.6 kmh N 12.4 mph20.0 kmh 30.21 in1023.0 mb 0.00 in0.0 mm 0.00 in0.0 mm 0.01 in0.3 mm
10:14 AM 69.0°F20.6°C 98.0°F36.7°C - 13.2 mph N21.2 kmh N 17.1 mph27.5 kmh 30.21 in1023.0 mb 0.00 in0.0 mm 0.00 in0.0 mm 0.01 in0.3 mm
10:19 AM 69.0°F20.6°C 98.1°F36.7°C - 13.4 mph N21.6 kmh N 17.5 mph28.2 kmh 30.21 in1023.0 mb 0.00 in0.0 mm 0.00 in0.0 mm 0.01 in0.3 mm
10:24 AM 68.8°F20.4°C 97.7°F36.5°C - 13.0 mph NNW20.9 kmh NNW 16.0 mph25.7 kmh 30.21 in1023.0 mb 0.00 in0.0 mm 0.00 in0.0 mm 0.01 in0.3 mm
10:29 AM 68.5°F20.3°C 97.5°F36.4°C - 10.5 mph NNW16.9 kmh NNW 11.8 mph19.0 kmh 30.22 in1023.4 mb 0.00 in0.0 mm 0.00 in0.0 mm 0.01 in0.3 mm
10:34 AM 68.3°F20.2°C 97.2°F36.2°C - 9.3 mph NNW15.0 kmh NNW 11.2 mph18.0 kmh 30.22 in1023.4 mb 0.00 in0.0 mm 0.00 in0.0 mm 0.01 in0.3 mm
10:39 AM 68.2°F20.1°C 97.2°F36.2°C - 8.1 mph NNW13.0 kmh NNW 10.1 mph16.3 kmh 30.22 in1023.4 mb 0.00 in0.0 mm 0.00 in0.0 mm 0.01 in0.3 mm
10:44 AM 68.2°F20.1°C 97.1°F36.2°C - 7.6 mph NNW12.2 kmh NNW 8.8 mph14.2 kmh 30.22 in1023.4 mb 0.00 in0.0 mm 0.00 in0.0 mm 0.01 in0.3 mm
10:49 AM 68.6°F20.3°C 97.6°F36.4°C - 6.8 mph NNW10.9 kmh NNW 10.6 mph17.1 kmh 30.22 in1023.4 mb 0.00 in0.0 mm 0.00 in0.0 mm 0.01 in0.3 mm
10:54 AM 69.2°F20.7°C 98.2°F36.8°C - 5.9 mph N9.5 kmh N 6.9 mph11.1 kmh 30.22 in1023.4 mb 0.00 in0.0 mm 0.00 in0.0 mm 0.01 in0.3 mm
10:59 AM 69.7°F20.9°C 98.7°F37.1°C - 6.6 mph N10.6 kmh N 7.3 mph11.7 kmh 30.22 in1023.4 mb 0.00 in0.0 mm 0.00 in0.0 mm 0.01 in0.3 mm
11:04 AM 69.9°F21.1°C 99.0°F37.2°C - 6.2 mph N10.0 kmh N 6.8 mph10.9 kmh 30.22 in1023.4 mb 0.00 in0.0 mm 0.00 in0.0 mm 0.01 in0.3 mm
11:09 AM 69.8°F21.0°C 98.9°F37.2°C - 6.3 mph N10.1 kmh N 7.4 mph11.9 kmh 30.22 in1023.4 mb 0.00 in0.0 mm 0.00 in0.0 mm 0.01 in0.3 mm
11:14 AM 69.5°F20.8°C 98.7°F37.1°C - 8.9 mph NNW14.3 kmh NNW 9.9 mph15.9 kmh 30.22 in1023.4 mb 0.00 in0.0 mm 0.00 in0.0 mm 0.01 in0.3 mm
11:19 AM 69.2°F20.7°C 98.2°F36.8°C - 12.2 mph NW19.6 kmh NW 15.1 mph24.3 kmh 30.22 in1023.4 mb 0.00 in0.0 mm 0.00 in0.0 mm 0.01 in0.3 mm
11:24 AM 68.9°F20.5°C 97.8°F36.6°C - 6.7 mph NW10.8 kmh NW 10.6 mph17.1 kmh 30.22 in1023.4 mb 0.00 in0.0 mm 0.00 in0.0 mm 0.01 in0.3 mm
11:29 AM 68.5°F20.3°C 97.5°F36.4°C - 14.2 mph NW22.9 kmh NW 16.0 mph25.7 kmh 30.22 in1023.4 mb 0.00 in0.0 mm 0.00 in0.0 mm 0.01 in0.3 mm
11:34 AM 68.2°F20.1°C 97.2°F36.2°C - 11.7 mph NNW18.8 kmh NNW 13.3 mph21.4 kmh 30.22 in1023.4 mb 0.00 in0.0 mm 0.00 in0.0 mm 0.01 in0.3 mm
11:39 AM 68.2°F20.1°C 97.1°F36.2°C - 12.1 mph NNW19.5 kmh NNW 13.4 mph21.6 kmh 30.22 in1023.4 mb 0.00 in0.0 mm 0.00 in0.0 mm 0.01 in0.3 mm
11:44 AM 68.2°F20.1°C 97.2°F36.2°C - 11.4 mph NW18.3 kmh NW 12.7 mph20.4 kmh 30.22 in1023.4 mb 0.00 in0.0 mm 0.00 in0.0 mm 0.01 in0.3 mm
11:49 AM 68.1°F20.1°C 97.1°F36.2°C - 8.9 mph NW14.3 kmh NW 12.6 mph20.3 kmh 30.22 in1023.4 mb 0.00 in0.0 mm 0.00 in0.0 mm 0.01 in0.3 mm
11:54 AM 67.9°F19.9°C 96.8°F36.0°C - 9.4 mph NW15.1 kmh NW 10.4 mph16.7 kmh 30.22 in1023.4 mb 0.00 in0.0 mm 0.00 in0.0 mm 0.01 in0.3 mm
11:59 AM 67.9°F19.9°C 96.7°F35.9°C - 8.4 mph NW13.5 kmh NW 9.6 mph15.4 kmh 30.22 in1023.4 mb 0.00 in0.0 mm 0.00 in0.0 mm 0.01 in0.3 mm
12:04 PM 68.0°F20.0°C 97.0°F36.1°C - 6.5 mph NW10.5 kmh NW 7.7 mph12.4 kmh 30.22 in1023.4 mb 0.00 in0.0 mm 0.00 in0.0 mm 0.01 in0.3 mm
12:09 PM 68.2°F20.1°C 97.1°F36.2°C - 6.4 mph NW10.3 kmh NW 9.0 mph14.5 kmh 30.22 in1023.4 mb 0.00 in0.0 mm 0.00 in0.0 mm 0.01 in0.3 mm
12:14 PM 68.4°F20.2°C 97.3°F36.3°C - 5.7 mph NW9.2 kmh NW 7.9 mph12.7 kmh 30.22 in1023.4 mb 0.00 in0.0 mm 0.00 in0.0 mm 0.01 in0.3 mm
12:19 PM 68.8°F20.4°C 97.9°F36.6°C - 6.4 mph NW10.3 kmh NW 9.3 mph15.0 kmh 30.22 in1023.4 mb 0.00 in0.0 mm 0.00 in0.0 mm 0.01 in0.3 mm
12:24 PM 69.3°F20.7°C 98.3°F36.8°C - 4.0 mph NW6.4 kmh NW 4.8 mph7.7 kmh 30.22 in1023.4 mb 0.00 in0.0 mm 0.00 in0.0 mm 0.01 in0.3 mm
12:29 PM 69.7°F20.9°C 98.9°F37.2°C - 4.3 mph NW6.9 kmh NW 5.0 mph8.0 kmh 30.22 in1023.4 mb 0.00 in0.0 mm 0.00 in0.0 mm 0.01 in0.3 mm
12:34 PM 70.0°F21.1°C 99.1°F37.3°C - 4.6 mph NNW7.4 kmh NNW 5.3 mph8.5 kmh 30.23 in1023.7 mb 0.00 in0.0 mm 0.00 in0.0 mm 0.01 in0.3 mm
12:39 PM 70.4°F21.3°C 99.7°F37.6°C - 7.5 mph NNE12.1 kmh NNE 9.0 mph14.5 kmh 30.22 in1023.4 mb 0.00 in0.0 mm 0.00 in0.0 mm 0.01 in0.3 mm
12:44 PM 70.1°F21.2°C 99.3°F37.4°C - 6.8 mph NNE10.9 kmh NNE 8.1 mph13.0 kmh 30.23 in1023.7 mb 0.00 in0.0 mm 0.00 in0.0 mm 0.01 in0.3 mm
12:49 PM 69.6°F20.9°C 98.8°F37.1°C - 6.6 mph NNE10.6 kmh NNE 7.8 mph12.6 kmh 30.23 in1023.7 mb 0.00 in0.0 mm 0.00 in0.0 mm 0.01 in0.3 mm
12:54 PM 69.3°F20.7°C 98.4°F36.9°C - 6.2 mph NE10.0 kmh NE 7.4 mph11.9 kmh 30.23 in1023.7 mb 0.00 in0.0 mm 0.00 in0.0 mm 0.01 in0.3 mm
12:59 PM 69.0°F20.6°C 98.1°F36.7°C - 5.9 mph NNE9.5 kmh NNE 7.3 mph11.7 kmh 30.23 in1023.7 mb 0.00 in0.0 mm 0.00 in0.0 mm 0.01 in0.3 mm
01:04 PM 68.9°F20.5°C 97.8°F36.6°C - 6.6 mph NNE10.6 kmh NNE 7.9 mph12.7 kmh 30.23 in1023.7 mb 0.00 in0.0 mm 0.00 in0.0 mm 0.01 in0.3 mm
01:09 PM 68.9°F20.5°C 97.8°F36.6°C - 7.7 mph NNE12.4 kmh NNE 8.8 mph14.2 kmh 30.23 in1023.7 mb 0.00 in0.0 mm 0.00 in0.0 mm 0.01 in0.3 mm
01:14 PM 68.9°F20.5°C 97.8°F36.6°C - 6.3 mph NNE10.1 kmh NNE 7.6 mph12.2 kmh 30.23 in1023.7 mb 0.00 in0.0 mm 0.00 in0.0 mm 0.01 in0.3 mm
01:19 PM 69.0°F20.6°C 98.1°F36.7°C - 6.3 mph NNE10.1 kmh NNE 8.9 mph14.3 kmh 30.23 in1023.7 mb 0.00 in0.0 mm 0.00 in0.0 mm 0.01 in0.3 mm
01:24 PM 69.2°F20.7°C 98.3°F36.8°C - 5.0 mph NNE8.0 kmh NNE 9.4 mph15.1 kmh 30.23 in1023.7 mb 0.00 in0.0 mm 0.00 in0.0 mm 0.01 in0.3 mm
01:29 PM 69.2°F20.7°C 98.2°F36.8°C - 6.0 mph NNE9.7 kmh NNE 7.0 mph11.3 kmh 30.23 in1023.7 mb 0.00 in0.0 mm 0.00 in0.0 mm 0.01 in0.3 mm
01:34 PM 69.4°F20.8°C 98.5°F36.9°C - 6.2 mph NNE10.0 kmh NNE 8.4 mph13.5 kmh 30.23 in1023.7 mb 0.00 in0.0 mm 0.00 in0.0 mm 0.01 in0.3 mm
01:39 PM 69.5°F20.8°C 98.5°F36.9°C - 6.5 mph NNE10.5 kmh NNE 7.9 mph12.7 kmh 30.23 in1023.7 mb 0.00 in0.0 mm 0.00 in0.0 mm 0.01 in0.3 mm
01:44 PM 69.5°F20.8°C 98.7°F37.1°C - 7.4 mph NNE11.9 kmh NNE 8.3 mph13.4 kmh 30.23 in1023.7 mb 0.00 in0.0 mm 0.00 in0.0 mm 0.01 in0.3 mm
01:49 PM 69.5°F20.8°C 98.5°F36.9°C - 6.6 mph NNE10.6 kmh NNE 7.7 mph12.4 kmh 30.23 in1023.7 mb 0.00 in0.0 mm 0.00 in0.0 mm 0.01 in0.3 mm
01:54 PM 69.5°F20.8°C 98.7°F37.1°C - 7.6 mph N12.2 kmh N 9.9 mph15.9 kmh 30.23 in1023.7 mb 0.00 in0.0 mm 0.00 in0.0 mm 0.01 in0.3 mm
01:59 PM 69.5°F20.8°C 98.5°F36.9°C - 7.8 mph NNE12.6 kmh NNE 10.5 mph16.9 kmh 30.23 in1023.7 mb 0.00 in0.0 mm 0.00 in0.0 mm 0.01 in0.3 mm
02:04 PM 69.4°F20.8°C 98.5°F36.9°C - 9.4 mph NNE15.1 kmh NNE 13.8 mph22.2 kmh 30.23 in1023.7 mb 0.00 in0.0 mm 0.00 in0.0 mm 0.01 in0.3 mm
02:09 PM 69.4°F20.8°C 98.5°F36.9°C - 9.3 mph NNW15.0 kmh NNW 13.0 mph20.9 kmh 30.23 in1023.7 mb 0.00 in0.0 mm 0.00 in0.0 mm 0.01 in0.3 mm
02:14 PM 69.4°F20.8°C 98.4°F36.9°C - 9.9 mph NNW15.9 kmh NNW 16.7 mph26.9 kmh 30.23 in1023.7 mb 0.00 in0.0 mm 0.00 in0.0 mm 0.01 in0.3 mm
02:19 PM 69.5°F20.8°C 98.5°F36.9°C - Calm Calm -- 30.23 in1023.7 mb 0.00 in0.0 mm 0.00 in0.0 mm 0.01 in0.3 mm
02:24 PM 69.5°F20.8°C 98.5°F36.9°C - Calm Calm -- 30.23 in1023.7 mb 0.00 in0.0 mm 0.00 in0.0 mm 0.01 in0.3 mm
02:29 PM 69.7°F20.9°C 98.9°F37.2°C - 4.9 mph NNW7.9 kmh NNW 6.5 mph10.5 kmh 30.23 in1023.7 mb 0.00 in0.0 mm 0.00 in0.0 mm 0.01 in0.3 mm
02:34 PM 69.9°F21.1°C 99.1°F37.3°C - Calm Calm -- 30.23 in1023.7 mb 0.00 in0.0 mm 0.00 in0.0 mm 0.01 in0.3 mm
02:39 PM 70.3°F21.3°C 99.4°F37.4°C - Calm Calm -- 30.23 in1023.7 mb 0.00 in0.0 mm 0.00 in0.0 mm 0.01 in0.3 mm
02:44 PM 70.8°F21.6°C 100.1°F37.8°C - Calm Calm -- 30.23 in1023.7 mb 0.00 in0.0 mm 0.00 in0.0 mm 0.01 in0.3 mm
02:49 PM 71.3°F21.8°C 100.6°F38.1°C - 1.3 mph N2.1 kmh N 1.8 mph2.9 kmh 30.23 in1023.7 mb 0.00 in0.0 mm 0.00 in0.0 mm 0.01 in0.3 mm
02:54 PM 71.5°F21.9°C 100.9°F38.3°C - 6.1 mph NNE9.8 kmh NNE 7.5 mph12.1 kmh 30.23 in1023.7 mb 0.00 in0.0 mm 0.00 in0.0 mm 0.01 in0.3 mm
02:59 PM 71.2°F21.8°C 100.6°F38.1°C - 5.0 mph NNE8.0 kmh NNE 6.0 mph9.7 kmh 30.23 in1023.7 mb 0.00 in0.0 mm 0.00 in0.0 mm 0.01 in0.3 mm
03:04 PM 71.0°F21.7°C 100.3°F37.9°C - 5.8 mph NNE9.3 kmh NNE 7.2 mph11.6 kmh 30.23 in1023.7 mb 0.00 in0.0 mm 0.00 in0.0 mm 0.01 in0.3 mm
03:09 PM 71.0°F21.7°C 100.2°F37.9°C - 6.7 mph NNE10.8 kmh NNE 7.9 mph12.7 kmh 30.23 in1023.7 mb 0.00 in0.0 mm 0.00 in0.0 mm 0.01 in0.3 mm
03:14 PM 70.7°F21.5°C 100.0°F37.8°C - 7.6 mph NE12.2 kmh NE 9.0 mph14.5 kmh 30.22 in1023.4 mb 0.00 in0.0 mm 0.00 in0.0 mm 0.01 in0.3 mm
03:19 PM 70.3°F21.3°C 99.6°F37.6°C - 8.4 mph NE13.5 kmh NE 9.7 mph15.6 kmh 30.23 in1023.7 mb 0.00 in0.0 mm 0.00 in0.0 mm 0.01 in0.3 mm
03:24 PM 70.0°F21.1°C 99.1°F37.3°C - 6.9 mph NE11.1 kmh NE 8.5 mph13.7 kmh 30.23 in1023.7 mb 0.00 in0.0 mm 0.00 in0.0 mm 0.01 in0.3 mm
03:29 PM 69.9°F21.1°C 99.1°F37.3°C - 6.3 mph NNE10.1 kmh NNE 8.7 mph14.0 kmh 30.23 in1023.7 mb 0.00 in0.0 mm 0.00 in0.0 mm 0.01 in0.3 mm
03:34 PM 69.7°F20.9°C 98.7°F37.1°C - 7.9 mph NE12.7 kmh NE 9.1 mph14.6 kmh 30.23 in1023.7 mb 0.00 in0.0 mm 0.00 in0.0 mm 0.01 in0.3 mm
03:39 PM 69.7°F20.9°C 98.9°F37.2°C - 7.1 mph NE11.4 kmh NE 8.7 mph14.0 kmh 30.23 in1023.7 mb 0.00 in0.0 mm 0.00 in0.0 mm 0.01 in0.3 mm
03:44 PM 69.7°F20.9°C 98.9°F37.2°C - 7.5 mph NNE12.1 kmh NNE 8.6 mph13.8 kmh 30.22 in1023.4 mb 0.00 in0.0 mm 0.00 in0.0 mm 0.01 in0.3 mm
03:49 PM 69.5°F20.8°C 98.7°F37.1°C - 7.4 mph NE11.9 kmh NE 8.5 mph13.7 kmh 30.22 in1023.4 mb 0.00 in0.0 mm 0.00 in0.0 mm 0.01 in0.3 mm
03:54 PM 69.7°F20.9°C 98.9°F37.2°C - 6.7 mph NE10.8 kmh NE 7.9 mph12.7 kmh 30.22 in1023.4 mb 0.00 in0.0 mm 0.00 in0.0 mm 0.01 in0.3 mm
03:59 PM 69.5°F20.8°C 98.7°F37.1°C - 6.0 mph NNE9.7 kmh NNE 6.9 mph11.1 kmh 30.22 in1023.4 mb 0.00 in0.0 mm 0.00 in0.0 mm 0.01 in0.3 mm
04:04 PM 69.5°F20.8°C 98.7°F37.1°C - 6.7 mph NNE10.8 kmh NNE 7.6 mph12.2 kmh 30.22 in1023.4 mb 0.00 in0.0 mm 0.00 in0.0 mm 0.01 in0.3 mm
04:09 PM 69.5°F20.8°C 98.7°F37.1°C - 6.1 mph NNE9.8 kmh NNE 7.0 mph11.3 kmh 30.22 in1023.4 mb 0.00 in0.0 mm 0.00 in0.0 mm 0.01 in0.3 mm
04:14 PM 69.5°F20.8°C 98.7°F37.1°C - 6.0 mph NNE9.7 kmh NNE 9.0 mph14.5 kmh 30.22 in1023.4 mb 0.00 in0.0 mm 0.00 in0.0 mm 0.01 in0.3 mm
04:19 PM 69.7°F20.9°C 98.7°F37.1°C - 6.7 mph NNE10.8 kmh NNE 7.5 mph12.1 kmh 30.22 in1023.4 mb 0.00 in0.0 mm 0.00 in0.0 mm 0.01 in0.3 mm
04:24 PM 69.7°F20.9°C 98.9°F37.2°C - 5.6 mph NE9.0 kmh NE 6.9 mph11.1 kmh 30.22 in1023.4 mb 0.00 in0.0 mm 0.00 in0.0 mm 0.01 in0.3 mm
04:29 PM 70.0°F21.1°C 99.2°F37.3°C - 6.3 mph NE10.1 kmh NE 8.1 mph13.0 kmh 30.22 in1023.4 mb 0.00 in0.0 mm 0.00 in0.0 mm 0.01 in0.3 mm
04:34 PM 70.0°F21.1°C 99.2°F37.3°C - 6.7 mph NE10.8 kmh NE 8.3 mph13.4 kmh 30.23 in1023.7 mb 0.00 in0.0 mm 0.00 in0.0 mm 0.01 in0.3 mm
04:39 PM 69.7°F20.9°C 98.7°F37.1°C - 7.1 mph NE11.4 kmh NE 8.4 mph13.5 kmh 30.23 in1023.7 mb 0.00 in0.0 mm 0.00 in0.0 mm 0.01 in0.3 mm
04:44 PM 69.8°F21.0°C 99.0°F37.2°C - 7.4 mph NE11.9 kmh NE 8.6 mph13.8 kmh 30.22 in1023.4 mb 0.00 in0.0 mm 0.00 in0.0 mm 0.01 in0.3 mm
04:49 PM 69.8°F21.0°C 99.0°F37.2°C - 7.4 mph NE11.9 kmh NE 9.2 mph14.8 kmh 30.22 in1023.4 mb 0.00 in0.0 mm 0.00 in0.0 mm 0.01 in0.3 mm
04:54 PM 69.7°F20.9°C 98.9°F37.2°C - 7.9 mph NE12.7 kmh NE 9.7 mph15.6 kmh 30.22 in1023.4 mb 0.00 in0.0 mm 0.00 in0.0 mm 0.01 in0.3 mm
04:59 PM 69.7°F20.9°C 98.7°F37.1°C - 8.2 mph NE13.2 kmh NE 11.4 mph18.3 kmh 30.22 in1023.4 mb 0.00 in0.0 mm 0.00 in0.0 mm 0.01 in0.3 mm
05:04 PM 69.6°F20.9°C 98.8°F37.1°C - 8.5 mph NE13.7 kmh NE 11.5 mph18.5 kmh 30.22 in1023.4 mb 0.00 in0.0 mm 0.00 in0.0 mm 0.01 in0.3 mm
05:09 PM 69.4°F20.8°C 98.4°F36.9°C - 11.6 mph NE18.7 kmh NE 17.6 mph28.3 kmh 30.22 in1023.4 mb 0.00 in0.0 mm 0.00 in0.0 mm 0.01 in0.3 mm
05:14 PM 69.3°F20.7°C 98.4°F36.9°C - 12.8 mph NE20.6 kmh NE 20.3 mph32.7 kmh 30.22 in1023.4 mb 0.00 in0.0 mm 0.00 in0.0 mm 0.01 in0.3 mm
05:19 PM 69.1°F20.6°C 98.2°F36.8°C - 8.9 mph NE14.3 kmh NE 15.3 mph24.6 kmh 30.22 in1023.4 mb 0.00 in0.0 mm 0.00 in0.0 mm 0.01 in0.3 mm
05:24 PM 69.1°F20.6°C 98.1°F36.7°C - 6.7 mph NE10.8 kmh NE 9.8 mph15.8 kmh 30.23 in1023.7 mb 0.00 in0.0 mm 0.00 in0.0 mm 0.01 in0.3 mm
05:29 PM 69.4°F20.8°C 98.4°F36.9°C - 7.8 mph N12.6 kmh N 11.1 mph17.9 kmh 30.23 in1023.7 mb 0.00 in0.0 mm 0.00 in0.0 mm 0.01 in0.3 mm
05:34 PM 69.5°F20.8°C 98.7°F37.1°C - 9.0 mph NNW14.5 kmh NNW 12.7 mph20.4 kmh 30.22 in1023.4 mb 0.00 in0.0 mm 0.00 in0.0 mm 0.01 in0.3 mm
05:39 PM 69.7°F20.9°C 98.9°F37.2°C - 11.8 mph NNW19.0 kmh NNW 18.9 mph30.4 kmh 30.22 in1023.4 mb 0.00 in0.0 mm 0.00 in0.0 mm 0.01 in0.3 mm
05:44 PM 69.7°F20.9°C 98.9°F37.2°C - 12.8 mph NNW20.6 kmh NNW 21.2 mph34.1 kmh 30.22 in1023.4 mb 0.00 in0.0 mm 0.00 in0.0 mm 0.01 in0.3 mm
05:49 PM 69.7°F20.9°C 98.9°F37.2°C - 16.6 mph NNW26.7 kmh NNW 22.5 mph36.2 kmh 30.22 in1023.4 mb 0.00 in0.0 mm 0.00 in0.0 mm 0.01 in0.3 mm
05:54 PM 69.5°F20.8°C 98.7°F37.1°C - 11.9 mph NNW19.2 kmh NNW 16.6 mph26.7 kmh 30.22 in1023.4 mb 0.00 in0.0 mm 0.00 in0.0 mm 0.01 in0.3 mm
05:59 PM 69.3°F20.7°C 98.4°F36.9°C - 13.0 mph NNW20.9 kmh NNW 18.4 mph29.6 kmh 30.22 in1023.4 mb 0.00 in0.0 mm 0.00 in0.0 mm 0.01 in0.3 mm
06:04 PM 69.2°F20.7°C 98.3°F36.8°C - 12.9 mph NNW20.8 kmh NNW 16.2 mph26.1 kmh 30.22 in1023.4 mb 0.00 in0.0 mm 0.00 in0.0 mm 0.01 in0.3 mm
06:09 PM 69.0°F20.6°C 98.1°F36.7°C - 3.2 mph NNW5.1 kmh NNW 6.7 mph10.8 kmh 30.22 in1023.4 mb 0.00 in0.0 mm 0.00 in0.0 mm 0.01 in0.3 mm
06:14 PM 68.8°F20.4°C 97.7°F36.5°C - 2.6 mph NNW4.2 kmh NNW 10.3 mph16.6 kmh 30.22 in1023.4 mb 0.00 in0.0 mm 0.00 in0.0 mm 0.01 in0.3 mm
06:19 PM 68.5°F20.3°C 97.5°F36.4°C - 0.2 mph NNW0.3 kmh NNW 2.8 mph4.5 kmh 30.23 in1023.7 mb 0.00 in0.0 mm 0.00 in0.0 mm 0.01 in0.3 mm
06:24 PM 68.5°F20.3°C 97.5°F36.4°C - 9.2 mph NNW14.8 kmh NNW 12.6 mph20.3 kmh 30.23 in1023.7 mb 0.00 in0.0 mm 0.00 in0.0 mm 0.01 in0.3 mm
06:29 PM 68.5°F20.3°C 97.5°F36.4°C - 13.7 mph NNW22.0 kmh NNW 17.9 mph28.8 kmh 30.23 in1023.7 mb 0.00 in0.0 mm 0.00 in0.0 mm 0.01 in0.3 mm
06:34 PM 68.2°F20.1°C 97.2°F36.2°C - 12.3 mph NNW19.8 kmh NNW 13.3 mph21.4 kmh 30.23 in1023.7 mb 0.00 in0.0 mm 0.00 in0.0 mm 0.01 in0.3 mm
06:39 PM 68.2°F20.1°C 97.2°F36.2°C - 13.1 mph NNW21.1 kmh NNW 14.4 mph23.2 kmh 30.23 in1023.7 mb 0.00 in0.0 mm 0.00 in0.0 mm 0.01 in0.3 mm
06:44 PM 68.2°F20.1°C 97.1°F36.2°C - 11.5 mph NNW18.5 kmh NNW 12.9 mph20.8 kmh 30.23 in1023.7 mb 0.00 in0.0 mm 0.00 in0.0 mm 0.01 in0.3 mm
06:49 PM 68.0°F20.0°C 97.0°F36.1°C - 12.3 mph NNW19.8 kmh NNW 13.2 mph21.2 kmh 30.23 in1023.7 mb 0.00 in0.0 mm 0.00 in0.0 mm 0.01 in0.3 mm
06:54 PM 67.9°F19.9°C 96.8°F36.0°C - 11.7 mph NW18.8 kmh NW 12.9 mph20.8 kmh 30.23 in1023.7 mb 0.00 in0.0 mm 0.00 in0.0 mm 0.01 in0.3 mm
06:59 PM 67.9°F19.9°C 96.8°F36.0°C - 11.6 mph NW18.7 kmh NW 13.3 mph21.4 kmh 30.23 in1023.7 mb 0.00 in0.0 mm 0.00 in0.0 mm 0.01 in0.3 mm
07:04 PM 67.7°F19.8°C 96.6°F35.9°C - 11.7 mph NW18.8 kmh NW 12.4 mph20.0 kmh 30.23 in1023.7 mb 0.00 in0.0 mm 0.00 in0.0 mm 0.01 in0.3 mm
07:09 PM 67.7°F19.8°C 96.6°F35.9°C - 12.3 mph NW19.8 kmh NW 16.1 mph25.9 kmh 30.23 in1023.7 mb 0.00 in0.0 mm 0.00 in0.0 mm 0.01 in0.3 mm
07:14 PM 67.5°F19.7°C 96.4°F35.8°C - 12.4 mph NW20.0 kmh NW 16.3 mph26.2 kmh 30.23 in1023.7 mb 0.00 in0.0 mm 0.00 in0.0 mm 0.01 in0.3 mm
07:19 PM 67.4°F19.7°C 96.3°F35.7°C - 11.0 mph NNW17.7 kmh NNW 12.9 mph20.8 kmh 30.24 in1024.0 mb 0.00 in0.0 mm 0.00 in0.0 mm 0.01 in0.3 mm
07:24 PM 67.2°F19.6°C 96.1°F35.6°C - 10.3 mph NW16.6 kmh NW 13.2 mph21.2 kmh 30.24 in1024.0 mb 0.00 in0.0 mm 0.00 in0.0 mm 0.01 in0.3 mm
07:29 PM 67.2°F19.6°C 96.1°F35.6°C - 10.9 mph NW17.5 kmh NW 16.5 mph26.6 kmh 30.24 in1024.0 mb 0.00 in0.0 mm 0.00 in0.0 mm 0.01 in0.3 mm
07:34 PM 67.2°F19.6°C 96.1°F35.6°C - 10.0 mph NW16.1 kmh NW 11.8 mph19.0 kmh 30.24 in1024.0 mb 0.00 in0.0 mm 0.00 in0.0 mm 0.01 in0.3 mm
07:39 PM 67.2°F19.6°C 95.9°F35.5°C - 9.8 mph NW15.8 kmh NW 11.2 mph18.0 kmh 30.24 in1024.0 mb 0.00 in0.0 mm 0.00 in0.0 mm 0.01 in0.3 mm
07:44 PM 67.2°F19.6°C 95.9°F35.5°C - 10.0 mph NW16.1 kmh NW 11.9 mph19.2 kmh 30.24 in1024.0 mb 0.00 in0.0 mm 0.00 in0.0 mm 0.01 in0.3 mm
07:49 PM 67.1°F19.5°C 95.9°F35.5°C - 9.1 mph NW14.6 kmh NW 10.0 mph16.1 kmh 30.24 in1024.0 mb 0.00 in0.0 mm 0.00 in0.0 mm 0.01 in0.3 mm
07:54 PM 67.0°F19.4°C 95.8°F35.4°C - 8.7 mph NNW14.0 kmh NNW 9.7 mph15.6 kmh 30.24 in1024.0 mb 0.00 in0.0 mm 0.00 in0.0 mm 0.01 in0.3 mm
07:59 PM 67.0°F19.4°C 95.7°F35.4°C - 8.6 mph NNW13.8 kmh NNW 9.8 mph15.8 kmh 30.24 in1024.0 mb 0.00 in0.0 mm 0.00 in0.0 mm 0.01 in0.3 mm
08:04 PM 67.1°F19.5°C 95.9°F35.5°C - 9.1 mph NNW14.6 kmh NNW 9.9 mph15.9 kmh 30.25 in1024.4 mb 0.00 in0.0 mm 0.00 in0.0 mm 0.01 in0.3 mm
08:09 PM 67.0°F19.4°C 95.7°F35.4°C - 8.7 mph NNW14.0 kmh NNW 9.9 mph15.9 kmh 30.25 in1024.4 mb 0.00 in0.0 mm 0.00 in0.0 mm 0.01 in0.3 mm
08:14 PM 67.0°F19.4°C 95.8°F35.4°C - 7.8 mph NNW12.6 kmh NNW 8.6 mph13.8 kmh 30.25 in1024.4 mb 0.00 in0.0 mm 0.00 in0.0 mm 0.01 in0.3 mm
08:19 PM 67.0°F19.4°C 95.8°F35.4°C - 7.7 mph NNW12.4 kmh NNW 8.9 mph14.3 kmh 30.25 in1024.4 mb 0.00 in0.0 mm 0.00 in0.0 mm 0.01 in0.3 mm
08:24 PM 67.0°F19.4°C 95.8°F35.4°C - 7.9 mph NNW12.7 kmh NNW 8.6 mph13.8 kmh 30.25 in1024.4 mb 0.00 in0.0 mm 0.00 in0.0 mm 0.01 in0.3 mm
08:29 PM 67.0°F19.4°C 95.8°F35.4°C - 8.1 mph NNW13.0 kmh NNW 8.7 mph14.0 kmh 30.25 in1024.4 mb 0.00 in0.0 mm 0.00 in0.0 mm 0.01 in0.3 mm
08:34 PM 67.0°F19.4°C 95.8°F35.4°C - 7.0 mph NNW11.3 kmh NNW 8.0 mph12.9 kmh 30.25 in1024.4 mb 0.00 in0.0 mm 0.00 in0.0 mm 0.01 in0.3 mm
08:39 PM 67.0°F19.4°C 95.7°F35.4°C - 8.2 mph NNW13.2 kmh NNW 9.9 mph15.9 kmh 30.25 in1024.4 mb 0.00 in0.0 mm 0.00 in0.0 mm 0.01 in0.3 mm
08:44 PM 67.0°F19.4°C 95.7°F35.4°C - 8.0 mph NNW12.9 kmh NNW 12.3 mph19.8 kmh 30.25 in1024.4 mb 0.00 in0.0 mm 0.00 in0.0 mm 0.01 in0.3 mm
08:49 PM 67.0°F19.4°C 95.7°F35.4°C - 6.7 mph NNW10.8 kmh NNW 7.6 mph12.2 kmh 30.25 in1024.4 mb 0.00 in0.0 mm 0.00 in0.0 mm 0.01 in0.3 mm
08:54 PM 67.0°F19.4°C 95.7°F35.4°C - 7.0 mph NNW11.3 kmh NNW 9.5 mph15.3 kmh 30.25 in1024.4 mb 0.00 in0.0 mm 0.00 in0.0 mm 0.01 in0.3 mm
08:59 PM 67.0°F19.4°C 95.8°F35.4°C - 6.4 mph NNW10.3 kmh NNW 8.7 mph14.0 kmh 30.25 in1024.4 mb 0.00 in0.0 mm 0.00 in0.0 mm 0.01 in0.3 mm
09:04 PM 67.0°F19.4°C 95.7°F35.4°C - 5.8 mph NNW9.3 kmh NNW 8.0 mph12.9 kmh 30.25 in1024.4 mb 0.00 in0.0 mm 0.00 in0.0 mm 0.01 in0.3 mm
09:09 PM 67.0°F19.4°C 95.7°F35.4°C - 5.2 mph NNW8.4 kmh NNW 7.9 mph12.7 kmh 30.25 in1024.4 mb 0.00 in0.0 mm 0.00 in0.0 mm 0.01 in0.3 mm
09:14 PM 66.9°F19.4°C 95.6°F35.3°C - 3.8 mph NNW6.1 kmh NNW 5.3 mph8.5 kmh 30.25 in1024.4 mb 0.00 in0.0 mm 0.00 in0.0 mm 0.01 in0.3 mm
09:19 PM 66.9°F19.4°C 95.7°F35.4°C - 5.3 mph NNW8.5 kmh NNW 8.1 mph13.0 kmh 30.25 in1024.4 mb 0.00 in0.0 mm 0.00 in0.0 mm 0.01 in0.3 mm
09:24 PM 66.7°F19.3°C 95.4°F35.2°C - 6.4 mph NNW10.3 kmh NNW 9.3 mph15.0 kmh 30.25 in1024.4 mb 0.00 in0.0 mm 0.00 in0.0 mm 0.01 in0.3 mm
09:29 PM 66.7°F19.3°C 95.4°F35.2°C - 4.2 mph NNW6.8 kmh NNW 6.9 mph11.1 kmh 30.25 in1024.4 mb 0.00 in0.0 mm 0.00 in0.0 mm 0.01 in0.3 mm
09:34 PM 66.5°F19.2°C 95.3°F35.2°C - 4.3 mph NNW6.9 kmh NNW 6.6 mph10.6 kmh 30.25 in1024.4 mb 0.00 in0.0 mm 0.00 in0.0 mm 0.01 in0.3 mm
09:39 PM 66.5°F19.2°C 95.3°F35.2°C - 4.7 mph NNW7.6 kmh NNW 8.4 mph13.5 kmh 30.25 in1024.4 mb 0.00 in0.0 mm 0.00 in0.0 mm 0.01 in0.3 mm
09:44 PM 66.5°F19.2°C 95.3°F35.2°C - 3.7 mph NNW6.0 kmh NNW 5.6 mph9.0 kmh 30.25 in1024.4 mb 0.00 in0.0 mm 0.00 in0.0 mm 0.01 in0.3 mm
09:49 PM 66.4°F19.1°C 95.2°F35.1°C - Calm Calm 0.3 mph0.5 kmh 30.25 in1024.4 mb 0.00 in0.0 mm 0.00 in0.0 mm 0.01 in0.3 mm
09:54 PM 66.5°F19.2°C 95.3°F35.2°C - Calm Calm -- 30.25 in1024.4 mb 0.00 in0.0 mm 0.00 in0.0 mm 0.01 in0.3 mm
09:59 PM 66.4°F19.1°C 95.2°F35.1°C - 1.0 mph NNW1.6 kmh NNW 1.9 mph3.1 kmh 30.25 in1024.4 mb 0.00 in0.0 mm 0.00 in0.0 mm 0.01 in0.3 mm
10:04 PM 66.4°F19.1°C 95.0°F35.0°C - 2.6 mph NNW4.2 kmh NNW 4.7 mph7.6 kmh 30.25 in1024.4 mb 0.00 in0.0 mm 0.00 in0.0 mm 0.01 in0.3 mm
10:09 PM 66.5°F19.2°C 95.1°F35.1°C - Calm Calm 0.3 mph0.5 kmh 30.25 in1024.4 mb 0.00 in0.0 mm 0.00 in0.0 mm 0.01 in0.3 mm
10:14 PM 66.4°F19.1°C 95.2°F35.1°C - Calm Calm -- 30.25 in1024.4 mb 0.00 in0.0 mm 0.00 in0.0 mm 0.01 in0.3 mm
10:19 PM 66.0°F18.9°C 94.7°F34.8°C - Calm Calm -- 30.25 in1024.4 mb 0.00 in0.0 mm 0.00 in0.0 mm 0.01 in0.3 mm
10:24 PM 65.9°F18.8°C 94.6°F34.8°C - Calm Calm -- 30.25 in1024.4 mb 0.00 in0.0 mm 0.00 in0.0 mm 0.01 in0.3 mm
10:29 PM 65.9°F18.8°C 94.5°F34.7°C - Calm Calm -- 30.25 in1024.4 mb 0.00 in0.0 mm 0.00 in0.0 mm 0.01 in0.3 mm
10:34 PM 65.9°F18.8°C 94.6°F34.8°C - Calm Calm -- 30.25 in1024.4 mb 0.00 in0.0 mm 0.00 in0.0 mm 0.01 in0.3 mm
10:39 PM 65.9°F18.8°C 94.6°F34.8°C - Calm Calm -- 30.25 in1024.4 mb 0.00 in0.0 mm 0.00 in0.0 mm 0.01 in0.3 mm
10:44 PM 65.7°F18.7°C 94.4°F34.7°C - Calm Calm -- 30.25 in1024.4 mb 0.00 in0.0 mm 0.00 in0.0 mm 0.01 in0.3 mm
10:49 PM 65.5°F18.6°C 94.1°F34.5°C - Calm Calm -- 30.25 in1024.4 mb 0.00 in0.0 mm 0.00 in0.0 mm 0.01 in0.3 mm
10:54 PM 65.5°F18.6°C 94.0°F34.4°C - Calm Calm -- 30.25 in1024.4 mb 0.00 in0.0 mm 0.00 in0.0 mm 0.01 in0.3 mm
11:04 PM 65.2°F18.4°C 93.7°F34.3°C - Calm Calm -- 30.25 in1024.4 mb 0.00 in0.0 mm 0.00 in0.0 mm 0.00 in0.0 mm
11:09 PM 65.2°F18.4°C 93.8°F34.3°C - Calm Calm -- 30.25 in1024.4 mb 0.00 in0.0 mm 0.00 in0.0 mm 0.00 in0.0 mm
11:14 PM 65.2°F18.4°C 93.7°F34.3°C - 3.9 mph NNW6.3 kmh NNW 5.6 mph9.0 kmh 30.25 in1024.4 mb 0.00 in0.0 mm 0.00 in0.0 mm 0.00 in0.0 mm
11:19 PM 65.2°F18.4°C 93.7°F34.3°C - 2.4 mph NNW3.9 kmh NNW 4.1 mph6.6 kmh 30.25 in1024.4 mb 0.00 in0.0 mm 0.00 in0.0 mm 0.00 in0.0 mm
11:24 PM 65.2°F18.4°C 93.8°F34.3°C - 2.0 mph NNW3.2 kmh NNW 4.3 mph6.9 kmh 30.25 in1024.4 mb 0.00 in0.0 mm 0.00 in0.0 mm 0.00 in0.0 mm
11:29 PM 65.0°F18.3°C 93.4°F34.1°C - 0.6 mph NNW1.0 kmh NNW 2.2 mph3.5 kmh 30.25 in1024.4 mb 0.00 in0.0 mm 0.00 in0.0 mm 0.00 in0.0 mm
11:34 PM 65.2°F18.4°C 93.8°F34.3°C - 0.5 mph NNW0.8 kmh NNW 1.4 mph2.3 kmh 30.25 in1024.4 mb 0.00 in0.0 mm 0.00 in0.0 mm 0.00 in0.0 mm
11:39 PM 65.2°F18.4°C 93.7°F34.3°C - Calm Calm -- 30.25 in1024.4 mb 0.00 in0.0 mm 0.00 in0.0 mm 0.00 in0.0 mm
11:44 PM 65.2°F18.4°C 93.7°F34.3°C - Calm Calm -- 30.25 in1024.4 mb 0.00 in0.0 mm 0.00 in0.0 mm 0.00 in0.0 mm
11:49 PM 65.2°F18.4°C 93.8°F34.3°C - Calm Calm -- 30.25 in1024.4 mb 0.00 in0.0 mm 0.00 in0.0 mm 0.00 in0.0 mm
11:54 PM 65.2°F18.4°C 93.8°F34.3°C - Calm Calm -- 30.25 in1024.4 mb 0.00 in0.0 mm 0.00 in0.0 mm 0.00 in0.0 mm
11:59 PM 65.2°F18.4°C 93.7°F34.3°C - Calm Calm 0.4 mph0.6 kmh 30.25 in1024.4 mb 0.00 in0.0 mm 0.00 in0.0 mm 0.00 in0.0 mm